KGTF

Great Falls International

Airport
ICAO code
KGTF
Summary
ICAO Region
NAM
ICAO Territory
Location

Great Falls, Cascade County, Montana,

Elevation
3680 ft
Coordinates
47° 28' 40" N , 111° 21' 33" W
KCC
Airport CFIT
Altimeter Temperature Error Correction
Airport RE
Hot and High Operations
Airport WX
Mountain Waves
Metar
Observation
KGTF 081853Z 22022KT 10SM CLR 00/M07 A2998 RMK AO2 PK WND 23030/1828 SLP194 T00001072
Station
Great Falls, Great Falls International Airport
Date/Time
2022-12-08 18:53:00
Wind direction
220°
Wind speed
22 kts
Lowest cloud amount
n/a
Temperature
0°C
Dew point
-7.2°C
Humidity
58%
Weather condition
n/a

Description

Great Falls International Airport is a joint civil-military public airport located within city limits, 5 km southwest of central Great Falls in Cascade County, Montana, USA. GTF serves the Great Falls area, as well as other communities throughout central Montana.

Climatology

Semi-arid climate (Köppen climate classification BSk) - Little summer precipitation, hot summers and cold winters, sometimes with large changes in temperature in a 24 hour period.

Airport map

Aerial View

SKYbrary Partners:

Safety knowledge contributed by: